Time;durP1;ratioP1;P1;durP2;ratioP2;P2;SDS_P1;SDS_P2;PMS_P1;PMS_P2;Temp;Humidity;BMP_temperature;BMP_pressure;BME280_temperature;BME280_humidity;BME280_pressure;Samples;Min_cycle;Max_cycle;Signal;HPM_P1;HPM_P2
2022/08/13 00:01:15;;;;;;;3.78;1.00;;;;;;;17.69;53.78;98695.94;5074956;28;20028;-69
2022/08/13 00:03:42;;;;;;;1.77;1.27;;;;;;;17.79;54.02;98710.84;5064666;28;20017;-69
2022/08/13 00:06:08;;;;;;;2.40;0.98;;;;;;;17.79;53.80;98713.56;5077463;28;20017;-69
2022/08/13 00:08:35;;;;;;;1.50;1.00;;;;;;;17.78;53.90;98706.47;5071640;28;20024;-69
2022/08/13 00:11:02;;;;;;;1.90;1.05;;;;;;;17.76;54.11;98712.16;5075231;28;20023;-69
2022/08/13 00:13:28;;;;;;;1.55;0.88;;;;;;;17.80;54.33;98712.53;5076620;28;20073;-69
2022/08/13 00:15:53;;;;;;;1.35;1.05;;;;;;;17.89;54.10;98711.88;5080223;28;20388;-69
2022/08/13 00:18:21;;;;;;;1.45;1.00;;;;;;;18.06;53.72;98719.19;5079096;28;20024;-69
2022/08/13 00:20:53;;;;;;;1.88;0.98;;;;;;;18.21;53.00;98713.06;5071779;28;20036;-69
2022/08/13 00:23:21;;;;;;;1.77;0.98;;;;;;;18.10;53.50;98706.63;5074231;28;21323;-69
2022/08/13 00:25:57;;;;;;;0.82;0.73;;;;;;;17.87;54.34;98705.00;5077162;28;20024;-69
2022/08/13 00:28:32;;;;;;;1.92;0.90;;;;;;;17.66;54.75;98712.06;5066595;28;20401;-69
2022/08/13 00:30:59;;;;;;;1.92;1.05;;;;;;;17.46;55.28;98715.31;5077192;28;20035;-69
2022/08/13 00:33:24;;;;;;;1.75;0.90;;;;;;;17.28;55.33;98717.22;5075627;28;20078;-69
2022/08/13 00:35:52;;;;;;;0.98;0.85;;;;;;;17.13;56.46;98710.66;5080489;28;20027;-69
2022/08/13 00:38:22;;;;;;;1.75;1.00;;;;;;;17.05;57.15;98712.72;5073721;28;20482;-69
2022/08/13 00:40:53;;;;;;;1.92;1.00;;;;;;;17.00;57.61;98715.41;5075988;28;20036;-68
2022/08/13 00:43:20;;;;;;;2.50;1.00;;;;;;;16.85;58.05;98696.00;5075126;28;20048;-69
2022/08/13 00:45:46;;;;;;;1.25;1.00;;;;;;;16.89;58.24;98707.25;5073062;28;20560;-69
2022/08/13 00:50:58;;;;;;;1.08;0.98;;;;;;;17.10;57.69;98703.78;5074280;28;20128;-68
2022/08/13 00:53:25;;;;;;;0.95;0.80;;;;;;;17.29;56.55;98690.69;5082435;28;20016;-69
2022/08/13 00:55:53;;;;;;;2.78;0.90;;;;;;;17.67;55.64;98698.09;5079951;28;20037;-69
2022/08/13 00:58:20;;;;;;;1.08;0.88;;;;;;;17.80;55.58;98693.38;5076911;28;20055;-69
2022/08/13 01:00:48;;;;;;;1.83;1.35;;;;;;;17.82;55.55;98691.25;5075264;28;20504;-69
2022/08/13 01:03:15;;;;;;;2.03;1.42;;;;;;;17.86;55.27;98679.50;5062817;28;20032;-69
2022/08/13 01:05:43;;;;;;;1.88;1.02;;;;;;;17.89;54.87;98686.38;5078996;28;20035;-69
2022/08/13 01:08:10;;;;;;;1.73;0.90;;;;;;;17.84;55.23;98692.63;5070046;28;20028;-69
2022/08/13 01:10:37;;;;;;;1.77;1.10;;;;;;;17.71;55.60;98687.47;5077840;28;20083;-69
2022/08/13 01:13:03;;;;;;;1.20;0.93;;;;;;;17.35;56.54;98699.81;5074788;28;20019;-69
2022/08/13 01:15:31;;;;;;;2.38;0.98;;;;;;;16.98;57.78;98675.72;5078172;28;20089;-69
2022/08/13 01:17:57;;;;;;;1.52;1.00;;;;;;;16.94;58.01;98690.97;5072932;28;20034;-68
2022/08/13 01:20:27;;;;;;;1.10;0.90;;;;;;;16.72;59.21;98699.84;5078018;28;20021;-69
2022/08/13 01:22:52;;;;;;;1.48;1.00;;;;;;;16.59;60.49;98694.69;5085655;28;20056;-69
2022/08/13 01:25:21;;;;;;;1.38;1.00;;;;;;;16.44;61.28;98696.06;5059924;28;20145;-69
2022/08/13 01:27:48;;;;;;;3.00;1.00;;;;;;;16.33;61.20;98696.94;5071930;28;20079;-68
2022/08/13 01:30:16;;;;;;;3.50;1.10;;;;;;;16.29;61.80;98693.03;5077381;28;20089;-69
2022/08/13 01:32:41;;;;;;;1.90;1.00;;;;;;;16.29;61.93;98695.75;5074103;28;20404;-68
2022/08/13 01:35:07;;;;;;;1.58;1.10;;;;;;;16.40;61.18;98694.03;5075202;28;20111;-69
2022/08/13 01:37:34;;;;;;;3.38;1.10;;;;;;;16.47;60.79;98699.38;5075009;28;20039;-69
2022/08/13 01:39:59;;;;;;;2.80;0.90;;;;;;;16.37;60.76;98695.38;5072913;28;20038;-69
2022/08/13 01:42:25;;;;;;;1.88;1.10;;;;;;;16.15;61.54;98664.38;5072849;28;20405;-68
2022/08/13 01:44:51;;;;;;;4.80;1.27;;;;;;;16.36;61.86;98699.19;5079135;28;20471;-72
2022/08/13 01:52:47;;;;;;;1.30;1.00;;;;;;;16.19;63.48;98690.09;5083027;28;20074;-69
2022/08/13 01:55:13;;;;;;;1.15;1.00;;;;;;;16.15;63.90;98684.28;5081938;28;20598;-69
2022/08/13 01:57:43;;;;;;;2.53;1.40;;;;;;;16.06;64.52;98693.94;5072548;28;20424;-69
2022/08/13 02:00:13;;;;;;;1.40;1.10;;;;;;;15.90;65.51;98684.63;5080595;28;20035;-68
2022/08/13 02:02:42;;;;;;;1.67;1.30;;;;;;;15.89;66.14;98688.41;5076189;28;20032;-69
2022/08/13 02:05:10;;;;;;;1.98;1.05;;;;;;;15.82;65.80;98684.97;5080600;28;20025;-69
2022/08/13 02:07:37;;;;;;;1.10;0.95;;;;;;;15.58;67.61;98686.88;5058250;28;20465;-69
2022/08/13 02:10:04;;;;;;;1.75;1.10;;;;;;;15.41;69.56;98675.06;5077828;28;20036;-69
2022/08/13 02:12:29;;;;;;;1.25;1.10;;;;;;;15.22;70.95;98655.25;5078220;28;20028;-72
2022/08/13 02:14:56;;;;;;;1.75;1.23;;;;;;;15.24;72.05;98674.91;5073106;28;20497;-70
2022/08/13 02:17:27;;;;;;;2.03;1.27;;;;;;;15.20;72.39;98671.03;5072075;28;20025;-69
2022/08/13 02:19:56;;;;;;;1.55;1.00;;;;;;;15.25;72.29;98682.88;5080235;28;20028;-69
2022/08/13 02:22:23;;;;;;;1.67;1.20;;;;;;;15.28;72.91;98687.03;5073165;28;20401;-71
2022/08/13 02:24:55;;;;;;;2.38;1.17;;;;;;;15.30;73.20;98676.69;5075324;28;20081;-69
2022/08/13 02:27:24;;;;;;;2.05;1.27;;;;;;;15.24;73.83;98685.81;5056629;28;20110;-69
2022/08/13 02:29:51;;;;;;;2.90;1.27;;;;;;;15.26;74.15;98673.63;5080379;28;20027;-70
2022/08/13 02:32:17;;;;;;;8.88;1.33;;;;;;;15.31;73.19;98686.53;5073705;28;20028;-69
2022/08/13 02:34:50;;;;;;;3.67;1.08;;;;;;;15.43;72.61;98700.16;5072991;28;20120;-69
2022/08/13 02:37:20;;;;;;;1.73;1.33;;;;;;;15.47;72.41;98683.09;5076913;28;20104;-69
2022/08/13 02:39:45;;;;;;;4.18;1.02;;;;;;;15.38;72.94;98683.69;5073000;28;20032;-69
2022/08/13 02:42:11;;;;;;;1.30;1.10;;;;;;;15.43;72.20;98689.25;5075639;28;20611;-69
2022/08/13 02:44:39;;;;;;;2.13;1.38;;;;;;;15.41;73.16;98685.97;5080072;28;20028;-69
2022/08/13 02:47:05;;;;;;;1.42;1.15;;;;;;;15.36;73.58;98688.56;5072825;28;20074;-70
2022/08/13 02:49:31;;;;;;;2.03;1.20;;;;;;;15.27;73.18;98679.88;5071768;28;20027;-69
2022/08/13 02:51:58;;;;;;;2.25;1.48;;;;;;;15.17;74.09;98666.88;5083865;28;20281;-69
2022/08/13 02:54:25;;;;;;;1.52;1.25;;;;;;;15.28;74.30;98687.84;5075275;28;20109;-69
2022/08/13 02:56:50;;;;;;;1.65;1.08;;;;;;;15.24;74.08;98683.91;5078191;28;20028;-69
2022/08/13 02:59:16;;;;;;;4.13;1.50;;;;;;;15.17;75.13;98682.38;5078681;28;20051;-69
2022/08/13 03:01:43;;;;;;;2.13;1.25;;;;;;;15.17;74.76;98669.59;5075164;28;20024;-69
2022/08/13 03:04:08;;;;;;;1.92;1.10;;;;;;;15.21;74.39;98681.66;5071549;28;20034;-72
2022/08/13 03:06:34;;;;;;;1.92;1.10;;;;;;;15.16;75.60;98684.28;5071686;28;20031;-69
2022/08/13 03:09:01;;;;;;;2.47;1.20;;;;;;;14.93;76.45;98662.44;5079974;28;20400;-71
2022/08/13 03:11:28;;;;;;;1.40;1.08;;;;;;;14.90;77.53;98682.81;5076911;28;20584;-69
2022/08/13 03:14:01;;;;;;;2.13;1.30;;;;;;;14.80;79.58;98679.84;5068681;28;20111;-69
2022/08/13 03:16:27;;;;;;;2.95;1.40;;;;;;;14.78;79.96;98684.72;5076148;28;20810;-71
2022/08/13 03:18:54;;;;;;;1.50;1.30;;;;;;;14.71;80.08;98682.06;5078441;28;20032;-70
2022/08/13 03:21:23;;;;;;;1.67;1.20;;;;;;;14.64;80.84;98679.44;5082149;28;20020;-70
2022/08/13 03:23:51;;;;;;;2.25;1.10;;;;;;;14.63;82.41;98680.53;5064312;28;20389;-72
2022/08/13 03:26:17;;;;;;;3.10;1.45;;;;;;;14.57;83.30;98688.81;5075795;28;20512;-70
2022/08/13 03:28:42;;;;;;;6.65;1.48;;;;;;;14.48;84.36;98690.97;5073678;28;20115;-70
2022/08/13 03:31:08;;;;;;;3.00;1.38;;;;;;;14.29;84.32;98668.41;5072442;28;20440;-70
2022/08/13 03:33:33;;;;;;;1.75;1.08;;;;;;;14.30;86.25;98685.56;5073175;28;20074;-70
2022/08/13 03:35:58;;;;;;;2.30;1.40;;;;;;;14.15;87.33;98672.41;5074445;28;20370;-70
2022/08/13 03:38:24;;;;;;;2.72;1.67;;;;;;;14.14;89.51;98685.16;5063063;28;20029;-70
2022/08/13 03:41:02;;;;;;;1.75;1.42;;;;;;;14.03;90.48;98689.47;5080960;28;20397;-70
2022/08/13 03:43:29;;;;;;;4.20;1.50;;;;;;;14.04;91.05;98687.56;5067013;28;20024;-70
2022/08/13 03:45:55;;;;;;;1.80;1.35;;;;;;;14.10;90.38;98700.28;5085481;28;20034;-70
2022/08/13 03:48:21;;;;;;;2.38;1.33;;;;;;;14.06;91.10;98699.06;5081074;28;20119;-69
2022/08/13 03:50:48;;;;;;;1.33;1.23;;;;;;;14.00;91.11;98697.28;5086243;28;20078;-69
2022/08/13 03:53:15;;;;;;;1.58;1.27;;;;;;;13.85;92.12;98675.88;5078642;28;20025;-69
2022/08/13 03:55:42;;;;;;;3.15;1.42;;;;;;;14.03;91.98;98703.06;5076087;28;20104;-70
2022/08/13 03:58:08;;;;;;;2.20;1.52;;;;;;;14.01;92.08;98707.06;5074884;28;20085;-69
2022/08/13 04:00:36;;;;;;;1.92;1.40;;;;;;;14.03;91.28;98704.97;5062116;28;20080;-70
2022/08/13 04:03:13;;;;;;;3.80;1.35;;;;;;;14.01;92.99;98701.63;5072967;28;20020;-73
2022/08/13 04:05:38;;;;;;;2.10;1.23;;;;;;;13.94;91.12;98692.75;5087788;28;20060;-73
2022/08/13 04:08:04;;;;;;;2.10;1.45;;;;;;;13.95;91.00;98695.22;5080453;28;20044;-71
2022/08/13 04:10:29;;;;;;;2.05;1.35;;;;;;;14.00;92.00;98691.84;5083285;28;20358;-72
2022/08/13 04:12:54;;;;;;;3.40;1.55;;;;;;;14.05;90.85;98691.97;5083474;28;20436;-73
2022/08/13 04:15:20;;;;;;;2.00;1.48;;;;;;;14.13;88.60;98699.00;5080845;28;20032;-72
2022/08/13 04:17:45;;;;;;;1.88;1.33;;;;;;;13.97;86.70;98674.06;5061423;28;20532;-72
2022/08/13 04:20:11;;;;;;;3.45;1.48;;;;;;;14.09;88.12;98698.59;5078911;28;20073;-69
2022/08/13 04:22:37;;;;;;;1.77;1.23;;;;;;;14.09;90.36;98698.59;5118748;22;20085;-58
2022/08/13 04:25:04;;;;;;;3.58;1.50;;;;;;;14.00;91.16;98692.66;5081304;28;20384;-58
2022/08/13 04:27:32;;;;;;;1.60;1.45;;;;;;;13.97;91.58;98692.28;5081814;28;20041;-58
2022/08/13 04:29:58;;;;;;;1.65;1.33;;;;;;;13.94;92.55;98692.75;5083760;28;20104;-58
2022/08/13 04:32:24;;;;;;;2.22;1.55;;;;;;;14.15;90.61;98694.16;5083094;28;20118;-57
2022/08/13 04:34:50;;;;;;;3.22;1.60;;;;;;;14.34;88.89;98689.50;5088064;28;20024;-57
2022/08/13 04:37:16;;;;;;;1.98;1.45;;;;;;;14.41;87.08;98687.53;5087677;28;20024;-57
2022/08/13 04:39:42;;;;;;;2.20;1.45;;;;;;;14.37;86.83;98689.03;5089234;28;20027;-61
2022/08/13 04:42:08;;;;;;;2.65;1.70;;;;;;;14.32;86.53;98705.22;5090744;28;20417;-57
2022/08/13 04:44:35;;;;;;;3.08;1.80;;;;;;;14.27;86.72;98692.31;5084775;28;20035;-57
2022/08/13 04:47:02;;;;;;;3.72;1.50;;;;;;;14.30;87.68;98700.00;5086265;28;20036;-57
2022/08/13 04:49:27;;;;;;;4.13;1.30;;;;;;;14.38;86.77;98704.31;5080744;28;20028;-57
2022/08/13 04:51:53;;;;;;;4.93;1.48;;;;;;;14.38;86.67;98693.41;5084190;28;20034;-57
2022/08/13 04:54:19;;;;;;;3.17;1.40;;;;;;;14.40;85.96;98697.56;5087442;28;20027;-57
2022/08/13 04:56:45;;;;;;;3.42;1.55;;;;;;;14.48;85.55;98697.25;5082762;28;20110;-57
2022/08/13 04:59:12;;;;;;;2.47;1.40;;;;;;;14.57;84.42;98708.69;5074670;28;20020;-57
2022/08/13 05:01:38;;;;;;;1.83;1.20;;;;;;;14.66;81.65;98712.72;5078546;28;20042;-57
2022/08/13 05:04:05;;;;;;;7.75;1.60;;;;;;;14.81;81.65;98703.31;5089246;28;20028;-57
2022/08/13 05:06:30;;;;;;;4.30;1.45;;;;;;;14.90;79.97;98712.78;5087181;28;20039;-57
2022/08/13 05:08:58;;;;;;;2.33;1.50;;;;;;;14.91;78.21;98700.84;5089301;28;20120;-57
2022/08/13 05:11:24;;;;;;;2.17;1.40;;;;;;;14.99;77.27;98705.94;5081563;28;20031;-57
2022/08/13 05:13:49;;;;;;;2.28;1.50;;;;;;;15.06;77.08;98706.69;5075854;28;20495;-57
2022/08/13 05:16:17;;;;;;;1.75;1.40;;;;;;;15.16;76.71;98705.25;5093279;28;20443;-57
2022/08/13 05:18:45;;;;;;;1.67;1.48;;;;;;;15.22;74.77;98705.16;5087050;28;20070;-56
2022/08/13 05:21:12;;;;;;;3.40;1.50;;;;;;;15.37;75.97;98710.13;5083364;28;20046;-57
2022/08/13 05:23:40;;;;;;;3.00;1.40;;;;;;;15.51;76.17;98716.16;5081511;28;20024;-56
2022/08/13 05:26:06;;;;;;;1.85;1.40;;;;;;;15.61;76.23;98707.38;5083876;28;20043;-57
2022/08/13 05:28:33;;;;;;;3.00;1.33;;;;;;;15.78;74.77;98713.81;5083306;28;20603;-57
2022/08/13 05:30:59;;;;;;;2.08;1.30;;;;;;;15.93;73.96;98722.34;5078059;28;20031;-56
2022/08/13 05:33:27;;;;;;;1.70;1.40;;;;;;;16.08;72.23;98718.25;5078212;28;20016;-56
2022/08/13 05:35:55;;;;;;;3.55;1.80;;;;;;;16.31;70.74;98720.09;5081844;28;20089;-56
2022/08/13 05:38:22;;;;;;;3.95;1.90;;;;;;;16.50;70.29;98723.47;5079399;28;20023;-57
2022/08/13 05:40:49;;;;;;;6.28;1.75;;;;;;;16.67;68.83;98727.06;5086493;28;20027;-57
2022/08/13 05:43:21;;;;;;;2.92;2.13;;;;;;;16.76;68.46;98725.59;5080022;28;20023;-56
2022/08/13 05:45:57;;;;;;;19.40;2.15;;;;;;;16.91;67.89;98735.19;5085332;28;20032;-57
2022/08/13 05:48:58;;;;;;;7.60;2.00;;;;;;;17.09;68.17;98726.75;5082385;28;20432;-57
2022/08/13 05:51:28;;;;;;;2.65;1.60;;;;;;;17.49;65.41;98728.47;5084845;28;20159;-57
2022/08/13 05:53:59;;;;;;;4.53;2.08;;;;;;;17.67;64.09;98730.94;5082056;27;20114;-63
2022/08/13 05:56:29;;;;;;;6.32;2.05;;;;;;;18.05;62.94;98714.78;5085254;28;20047;-63
2022/08/13 05:58:54;;;;;;;4.10;2.08;;;;;;;18.28;61.29;98720.00;5081626;28;20033;-63
2022/08/13 06:04:14;;;;;;;5.63;1.80;;;;;;;18.91;59.85;98709.47;5099838;28;20166;-63
2022/08/13 06:06:41;;;;;;;4.32;1.50;;;;;;;19.25;58.93;98706.47;5084433;28;20402;-63
2022/08/13 06:09:08;;;;;;;2.20;1.60;;;;;;;19.51;56.81;98709.41;5068086;28;20114;-63
2022/08/13 06:11:34;;;;;;;5.85;1.90;;;;;;;19.83;56.21;98707.44;5080462;28;20067;-64
2022/08/13 06:14:00;;;;;;;2.55;1.63;;;;;;;20.38;54.68;98707.94;5076270;28;20016;-63
2022/08/13 06:16:30;;;;;;;2.20;1.70;;;;;;;21.08;52.58;98707.56;5077188;28;20076;-64
2022/08/13 06:18:57;;;;;;;5.38;1.67;;;;;;;22.36;49.36;98705.44;5076833;28;20426;-64
2022/08/13 06:21:24;;;;;;;5.05;1.40;;;;;;;24.19;45.12;98709.75;5079945;28;20031;-63
2022/08/13 06:23:50;;;;;;;5.38;1.50;;;;;;;26.41;40.91;98701.97;5075087;28;20319;-64
2022/08/13 06:26:17;;;;;;;4.38;1.58;;;;;;;27.96;37.47;98700.72;5084591;28;20054;-64
2022/08/13 06:28:44;;;;;;;3.13;1.20;;;;;;;29.47;35.20;98702.25;5074319;28;20031;-66
2022/08/13 06:31:13;;;;;;;4.45;1.60;;;;;;;30.68;33.21;98705.72;5082272;28;20115;-63
2022/08/13 06:33:39;;;;;;;4.35;1.70;;;;;;;31.87;31.11;98692.97;5081912;28;20374;-63
2022/08/13 06:36:10;;;;;;;2.92;1.65;;;;;;;32.59;30.23;98691.75;5082179;28;20467;-58
2022/08/13 06:38:40;;;;;;;3.63;1.30;;;;;;;32.53;29.81;98694.78;5114841;22;20042;-70
2022/08/13 06:41:07;;;;;;;6.65;1.60;;;;;;;34.30;27.79;98694.94;5104454;28;20393;-70
2022/08/13 06:43:40;;;;;;;5.00;0.95;;;;;;;34.81;27.30;98703.38;5108084;27;20027;-70
2022/08/13 06:46:07;;;;;;;1.63;1.20;;;;;;;35.49;26.69;98711.25;5109542;28;20031;-69
2022/08/13 06:48:33;;;;;;;5.70;1.58;;;;;;;34.04;27.79;98696.28;5107205;28;20081;-69
2022/08/13 06:51:00;;;;;;;2.63;1.17;;;;;;;35.00;26.59;98706.19;5104735;28;20036;-73
2022/08/13 06:53:25;;;;;;;3.30;1.10;;;;;;;34.91;26.35;98714.84;5106803;28;20734;-73
2022/08/13 06:55:52;;;;;;;3.42;1.05;;;;;;;36.33;25.71;98703.94;5106460;28;20040;-70
2022/08/13 06:58:27;;;;;;;1.00;0.90;;;;;;;37.09;24.72;98694.63;5105311;27;20049;-71
2022/08/13 07:00:55;;;;;;;2.97;0.80;;;;;;;37.70;24.08;98700.97;5105714;28;20411;-70
2022/08/13 07:03:25;;;;;;;3.03;1.00;;;;;;;37.77;23.38;98709.53;5090165;28;20020;-72
2022/08/13 07:05:51;;;;;;;3.72;0.90;;;;;;;37.72;23.75;98704.22;5108804;28;20028;-73
2022/08/13 07:08:17;;;;;;;2.72;0.98;;;;;;;36.62;24.90;98710.06;5104365;28;20396;-73
2022/08/13 07:10:48;;;;;;;3.92;0.90;;;;;;;36.55;24.62;98705.13;5088243;28;20023;-73
2022/08/13 07:13:13;;;;;;;1.92;0.93;;;;;;;35.15;25.82;98700.91;5108009;28;20492;-71
2022/08/13 07:15:44;;;;;;;1.58;0.90;;;;;;;36.68;24.23;98704.91;5110052;28;20024;-70
2022/08/13 07:18:11;;;;;;;1.20;1.00;;;;;;;37.29;24.34;98704.53;5101978;28;20035;-70
2022/08/13 07:20:37;;;;;;;2.33;1.00;;;;;;;37.47;23.47;98706.78;5109871;28;20020;-72
2022/08/13 07:23:02;;;;;;;1.85;0.80;;;;;;;38.57;23.04;98712.69;5107161;28;20027;-71
2022/08/13 07:25:31;;;;;;;0.90;0.90;;;;;;;37.94;22.71;98705.25;5104624;28;20035;-75
2022/08/13 07:27:59;;;;;;;3.70;0.90;;;;;;;37.19;23.87;98718.53;5082675;28;20118;-75
2022/08/13 07:30:25;;;;;;;1.48;0.90;;;;;;;36.68;23.92;98713.34;5088628;28;20020;-75
2022/08/13 07:32:52;;;;;;;4.55;0.80;;;;;;;37.63;23.51;98706.56;5092559;28;20016;-76
2022/08/13 07:35:18;;;;;;;1.10;0.90;;;;;;;37.92;22.95;98707.66;5103315;28;20677;-71
2022/08/13 07:37:44;;;;;;;3.78;1.10;;;;;;;37.86;23.10;98704.38;5103994;28;20024;-76
2022/08/13 07:40:10;;;;;;;2.25;0.77;;;;;;;38.28;23.04;98710.81;5103082;28;20024;-73
2022/08/13 07:42:41;;;;;;;1.10;0.80;;;;;;;38.54;22.13;98702.16;5085507;28;20022;-72
2022/08/13 07:45:08;;;;;;;4.00;0.88;;;;;;;38.73;21.99;98700.25;5103523;28;20392;-73
2022/08/13 07:47:35;;;;;;;3.15;0.80;;;;;;;38.21;22.80;98696.63;5106567;28;20047;-73
2022/08/13 07:50:05;;;;;;;1.63;0.95;;;;;;;38.58;22.85;98693.69;5103029;28;20385;-74
2022/08/13 07:52:31;;;;;;;7.03;1.15;;;;;;;39.04;22.36;98689.53;5107593;28;20393;-74
2022/08/13 07:54:58;;;;;;;1.88;0.85;;;;;;;40.05;21.58;98694.28;5106135;28;20031;-73
2022/08/13 07:57:28;;;;;;;1.70;0.90;;;;;;;40.79;20.80;98697.50;5104412;28;20080;-74
2022/08/13 07:59:54;;;;;;;4.43;1.00;;;;;;;39.32;21.56;98703.78;5105457;28;20099;-72
2022/08/13 08:02:20;;;;;;;3.13;0.80;;;;;;;39.61;21.16;98703.91;5103718;28;20031;-74
2022/08/13 08:04:46;;;;;;;1.75;0.80;;;;;;;39.78;21.36;98697.50;5105065;28;20084;-74
2022/08/13 08:07:11;;;;;;;1.50;0.80;;;;;;;37.41;22.91;98686.53;5103741;28;20028;-76
2022/08/13 08:09:37;;;;;;;1.60;0.80;;;;;;;38.50;22.39;98695.66;5090324;28;20410;-74
2022/08/13 08:14:49;;;;;;;1.35;0.90;;;;;;;38.85;21.68;98691.41;5108166;28;20284;-77
2022/08/13 08:17:15;;;;;;;5.00;0.90;;;;;;;39.64;21.07;98697.44;5109792;28;20035;-77
2022/08/13 08:19:41;;;;;;;2.33;1.00;;;;;;;37.68;22.50;98692.91;5109927;28;20024;-77
2022/08/13 08:22:10;;;;;;;2.90;0.90;;;;;;;37.39;22.94;98696.56;5102463;28;20039;-76
2022/08/13 08:24:37;;;;;;;3.53;0.88;;;;;;;38.70;21.79;98684.06;5096184;27;20028;-75
2022/08/13 08:27:05;;;;;;;1.23;0.77;;;;;;;39.44;21.17;98694.97;5106291;27;20035;-74
2022/08/13 08:29:34;;;;;;;1.40;0.80;;;;;;;40.37;20.53;98699.97;5108311;28;20023;-73
2022/08/13 08:32:07;;;;;;;2.28;0.60;;;;;;;40.09;20.47;98695.91;5109159;27;20447;-73
2022/08/13 08:34:33;;;;;;;1.67;0.75;;;;;;;39.18;21.52;98683.94;5109280;27;20023;-74
2022/08/13 08:36:59;;;;;;;1.33;0.93;;;;;;;37.93;22.67;98695.16;5108971;27;20058;-74
2022/08/13 08:44:59;;;;;;;1.77;1.02;;;;;;;35.85;24.24;98689.44;5108635;28;20361;-75
2022/08/13 08:47:32;;;;;;;1.05;0.95;;;;;;;36.23;23.76;98696.13;5107872;27;20027;-75
2022/08/13 08:49:58;;;;;;;0.70;0.70;;;;;;;36.52;23.49;98688.13;5109198;28;20054;-74
2022/08/13 08:55:12;;;;;;;3.75;1.10;;;;;;;40.28;19.88;98694.72;5103610;27;20091;-73
2022/08/13 08:57:39;;;;;;;1.35;0.80;;;;;;;40.17;19.70;98691.06;5113780;27;20049;-72
2022/08/13 09:00:10;;;;;;;1.00;0.75;;;;;;;40.76;19.13;98684.94;5116125;27;20024;-75
2022/08/13 09:02:36;;;;;;;1.17;0.82;;;;;;;40.03;19.88;98676.88;5114063;27;20015;-75
2022/08/13 09:05:02;;;;;;;1.70;0.90;;;;;;;40.11;19.43;98684.16;5110394;27;20034;-72
2022/08/13 09:07:29;;;;;;;1.35;0.77;;;;;;;40.76;19.37;98684.13;5101287;27;20024;-73
2022/08/13 09:09:57;;;;;;;1.55;0.68;;;;;;;41.55;18.85;98671.22;5109781;27;20031;-74
2022/08/13 09:12:26;;;;;;;2.53;0.75;;;;;;;40.25;19.63;98669.22;5107721;27;20027;-75
2022/08/13 09:14:53;;;;;;;5.72;0.82;;;;;;;41.41;18.78;98681.84;5107822;28;20059;-74
2022/08/13 09:17:20;;;;;;;2.42;0.70;;;;;;;41.48;17.62;98676.94;5110434;27;20027;-72
2022/08/13 09:19:46;;;;;;;1.13;0.75;;;;;;;39.05;19.18;98666.50;5090248;27;20015;-74
2022/08/13 09:22:14;;;;;;;1.58;0.77;;;;;;;38.68;19.25;98670.34;5105804;27;20397;-74
2022/08/13 09:24:45;;;;;;;2.30;0.70;;;;;;;36.92;20.89;98672.59;5104662;27;20035;-74
2022/08/13 09:27:13;;;;;;;2.13;0.70;;;;;;;37.20;20.93;98666.53;5086507;27;20032;-74
2022/08/13 09:29:39;;;;;;;0.60;0.60;;;;;;;37.68;20.43;98670.31;5103906;28;20028;-74
2022/08/13 09:32:05;;;;;;;2.33;0.82;;;;;;;36.55;20.75;98657.22;5102637;27;20027;-73
2022/08/13 09:34:30;;;;;;;2.60;0.80;;;;;;;37.77;20.06;98660.72;5083923;28;20760;-74
2022/08/13 09:36:57;;;;;;;1.58;0.80;;;;;;;38.36;19.64;98650.31;5107021;27;20027;-74
2022/08/13 09:39:32;;;;;;;1.75;0.73;;;;;;;39.88;18.20;98662.72;5104977;27;20031;-74
2022/08/13 09:42:00;;;;;;;1.02;0.80;;;;;;;39.81;18.52;98642.06;5101780;27;20038;-75
2022/08/13 09:44:26;;;;;;;2.38;0.60;;;;;;;39.64;18.56;98646.44;5107613;27;20019;-75
2022/08/13 09:46:52;;;;;;;1.15;0.80;;;;;;;39.95;18.32;98644.88;5084222;28;20096;-75
2022/08/13 09:49:20;;;;;;;1.70;0.65;;;;;;;38.79;18.75;98642.09;5103037;28;20049;-74
2022/08/13 09:51:45;;;;;;;2.40;0.80;;;;;;;37.40;20.00;98634.09;5105606;28;20039;-75
2022/08/13 09:54:10;;;;;;;5.65;0.95;;;;;;;37.25;19.76;98632.34;5104193;27;20104;-74
2022/08/13 09:56:37;;;;;;;1.40;0.88;;;;;;;37.10;20.40;98631.38;5104255;27;20664;-74
2022/08/13 09:59:06;;;;;;;1.30;0.82;;;;;;;36.34;20.40;98629.53;5104231;27;20597;-75
2022/08/13 10:01:34;;;;;;;1.27;0.75;;;;;;;35.97;20.77;98632.09;5101832;27;20035;-74
2022/08/13 10:04:00;;;;;;;0.70;0.70;;;;;;;35.97;21.04;98629.28;5106905;27;20027;-74
2022/08/13 10:06:28;;;;;;;3.83;1.27;;;;;;;36.06;20.99;98640.31;5100078;27;20755;-74
2022/08/13 10:08:53;;;;;;;;;;;;;;;36.54;20.66;98632.19;5100441;27;20038;-74
2022/08/13 10:11:22;;;;;;;2.17;1.00;;;;;;;37.40;19.92;98630.47;5105835;27;19915;-74
2022/08/13 10:13:48;;;;;;;2.83;0.90;;;;;;;36.80;20.38;98615.25;5105829;27;20328;-74
2022/08/13 10:16:13;;;;;;;5.28;0.95;;;;;;;37.24;20.11;98631.53;5102680;27;20404;-75
2022/08/13 10:18:41;;;;;;;1.50;0.80;;;;;;;37.24;20.15;98619.44;5103013;28;20026;-78
2022/08/13 10:21:07;;;;;;;1.80;0.70;;;;;;;36.73;20.93;98625.63;5108675;27;20034;-78
2022/08/13 10:23:33;;;;;;;1.75;1.05;;;;;;;36.87;20.64;98630.66;5105298;28;20032;-78
2022/08/13 10:25:58;;;;;;;3.17;0.70;;;;;;;37.20;20.56;98612.94;5105881;28;20032;-77
2022/08/13 10:28:27;;;;;;;1.77;0.90;;;;;;;37.06;20.29;98631.31;5112341;27;20031;-77
2022/08/13 10:30:54;;;;;;;0.90;0.70;;;;;;;36.88;20.13;98616.16;5104006;28;20051;-78
2022/08/13 10:33:20;;;;;;;0.90;0.70;;;;;;;36.75;20.80;98626.88;5110277;28;20030;-78
2022/08/13 10:35:52;;;;;;;1.38;0.73;;;;;;;37.89;20.36;98610.41;5107858;28;20651;-77
2022/08/13 10:38:19;;;;;;;1.05;0.85;;;;;;;38.14;19.85;98607.78;5103637;28;20031;-78
2022/08/13 10:40:45;;;;;;;2.45;0.80;;;;;;;36.89;20.75;98614.16;5112211;28;20019;-78
2022/08/13 10:43:10;;;;;;;2.22;0.90;;;;;;;36.49;20.78;98607.16;5110411;27;20030;-78
2022/08/13 10:45:37;;;;;;;2.17;0.70;;;;;;;37.02;20.36;98599.44;5104859;28;20035;-78
2022/08/13 10:48:11;;;;;;;1.90;0.90;;;;;;;37.51;19.82;98589.09;5106798;28;20033;-78
2022/08/13 10:50:38;;;;;;;2.00;0.90;;;;;;;36.67;20.46;98605.44;5109848;28;20019;-78
2022/08/13 10:53:03;;;;;;;3.15;0.80;;;;;;;37.25;20.10;98609.75;5105609;28;22431;-78
2022/08/13 10:55:29;;;;;;;3.05;0.73;;;;;;;37.42;19.93;98597.84;5091401;28;20042;-78
2022/08/13 10:57:54;;;;;;;1.38;0.80;;;;;;;38.02;19.75;98588.34;5089532;28;20028;-78
2022/08/13 11:00:20;;;;;;;0.73;0.63;;;;;;;38.30;19.35;98582.03;5106283;28;20729;-77
2022/08/13 11:02:52;;;;;;;1.80;1.00;;;;;;;37.75;20.03;98598.16;5112251;28;20023;-78
2022/08/13 11:05:25;;;;;;;2.78;0.90;;;;;;;38.47;19.42;98608.03;5111160;27;20035;-78
2022/08/13 11:07:51;;;;;;;1.23;0.75;;;;;;;38.82;19.41;98596.06;5107867;28;20042;-74
2022/08/13 11:10:18;;;;;;;2.72;0.70;;;;;;;40.05;17.53;98600.78;5101899;28;20038;-74
2022/08/13 11:12:50;;;;;;;0.68;0.60;;;;;;;40.10;17.23;98604.00;5106059;28;20019;-75
2022/08/13 11:15:15;;;;;;;1.58;0.77;;;;;;;39.76;17.44;98600.75;5102793;28;20031;-73
2022/08/13 11:17:46;;;;;;;0.93;0.65;;;;;;;40.18;17.22;98590.63;5101440;28;20024;-74
2022/08/13 11:20:17;;;;;;;0.80;0.65;;;;;;;40.38;16.65;98582.53;5111363;28;20094;-73
2022/08/13 11:22:42;;;;;;;3.90;0.60;;;;;;;40.02;17.43;98581.75;5116765;28;20031;-75
2022/08/13 11:25:08;;;;;;;0.85;0.80;;;;;;;41.36;17.02;98575.19;5104759;28;20373;-74
2022/08/13 11:27:34;;;;;;;3.70;0.75;;;;;;;38.14;18.59;98576.69;5107527;28;20034;-74
2022/08/13 11:29:59;;;;;;;1.85;0.60;;;;;;;39.18;18.32;98573.56;5102921;28;20068;-74
2022/08/13 11:32:25;;;;;;;1.37;0.60;;;;;;;39.00;18.29;98577.16;5112964;28;20027;-74
2022/08/13 11:34:50;;;;;;;2.25;0.80;;;;;;;39.34;17.86;98581.72;5101148;28;20317;-75
2022/08/13 11:37:16;;;;;;;1.83;0.60;;;;;;;40.00;17.54;98581.34;5106302;28;20075;-72
2022/08/13 11:39:41;;;;;;;0.82;0.60;;;;;;;39.76;17.30;98572.44;5098095;28;21088;-75
2022/08/13 11:42:06;;;;;;;1.10;0.93;;;;;;;39.59;16.93;98576.91;5096013;28;20072;-74
2022/08/13 11:44:31;;;;;;;1.60;0.82;;;;;;;40.65;16.24;98573.53;5103845;28;20277;-74
2022/08/13 11:46:57;;;;;;;2.47;0.70;;;;;;;39.34;17.08;98573.22;5104866;28;20031;-75
2022/08/13 11:49:22;;;;;;;1.27;0.75;;;;;;;40.87;15.60;98577.88;5102079;28;20023;-74
2022/08/13 11:51:48;;;;;;;1.60;0.70;;;;;;;39.76;16.68;98574.47;5099440;28;20073;-74
2022/08/13 11:54:14;;;;;;;0.82;0.73;;;;;;;39.21;17.26;98569.94;5102853;28;20016;-75
2022/08/13 11:56:39;;;;;;;0.77;0.60;;;;;;;38.53;17.74;98573.31;5085011;28;20488;-74